Time;durP1;ratioP1;P1;durP2;ratioP2;P2;SDS_P1;SDS_P2;PMS_P1;PMS_P2;Temp;Humidity;BMP_temperature;BMP_pressure;BME280_temperature;BME280_humidity;BME280_pressure;Samples;Min_cycle;Max_cycle;Signal;HPM_P1;HPM_P2
2022/01/11 00:00:20;;;;;;;;;;;;;;;;;;2109623;28;19997;-48
2022/01/11 00:01:21;;;;;;;;;;;;;;;;;;2114470;28;20039;-49
2022/01/11 00:02:22;;;;;;;;;;;;;;;;;;2115257;28;19949;-49
2022/01/11 00:03:23;;;;;;;;;;;;;;;;;;2107388;28;19920;-48
2022/01/11 00:04:29;;;;;;;;;;;;;;;;;;2098452;28;20007;-49
2022/01/11 00:05:33;;;;;;;;;;;;;;;;;;2098028;28;19920;-48
2022/01/11 00:06:40;;;;;;;;;;;;;;;;;;2101934;28;19921;-48
2022/01/11 00:07:43;;;;;;;;;;;;;;;;;;2098493;28;20003;-49
2022/01/11 00:08:45;;;;;;;;;;;;;;;;;;2099665;28;20035;-51
2022/01/11 00:09:48;;;;;;;;;;;;;;;;;;2099214;28;20334;-49
2022/01/11 00:10:51;;;;;;;;;;;;;;;;;;2098272;28;20015;-48
2022/01/11 00:11:55;;;;;;;;;;;;;;;;;;2106194;28;20425;-49
2022/01/11 00:12:56;;;;;;;;;;;;;;;;;;2098199;28;19921;-49
2022/01/11 00:13:57;;;;;;;;;;;;;;;;;;2098398;28;20357;-51
2022/01/11 00:14:58;;;;;;;;;;;;;;;;;;2105559;28;20289;-49
2022/01/11 00:15:59;;;;;;;;;;;;;;;;;;2106551;28;19924;-49
2022/01/11 00:17:00;;;;;;;;;;;;;;;;;;2105856;28;20150;-50
2022/01/11 00:18:00;;;;;;;;;;;;;;;;;;2110485;28;20308;-51
2022/01/11 00:19:05;;;;;;;;;;;;;;;;;;2114989;28;19946;-49
2022/01/11 00:20:06;;;;;;;;;;;;;;;;;;2110041;28;20403;-50
2022/01/11 00:21:07;;;;;;;;;;;;;;;;;;2106545;28;20365;-50
2022/01/11 00:22:16;;;;;;;;;;;;;;;;;;2106589;28;19920;-48
2022/01/11 00:24:37;;;;;;;;;;;;;;;;;;2106087;28;20002;-52
2022/01/11 00:25:37;;;;;;;;;;;;;;;;;;2104228;28;19920;-48
2022/01/11 00:26:38;;;;;;;;;;;;;;;;;;2098832;28;19920;-49
2022/01/11 00:27:39;;;;;;;;;;;;;;;;;;2098179;28;19927;-50
2022/01/11 00:28:40;;;;;;;;;;;;;;;;;;2103562;28;19928;-49
2022/01/11 00:29:43;;;;;;;;;;;;;;;;;;2106876;28;20342;-50
2022/01/11 00:30:46;;;;;;;;;;;;;;;;;;2105852;28;20018;-51
2022/01/11 00:31:48;;;;;;;;;;;;;;;;;;2101886;28;20449;-48
2022/01/11 00:32:52;;;;;;;;;;;;;;;;;;2098135;28;20011;-50
2022/01/11 00:33:53;;;;;;;;;;;;;;;;;;2101417;28;20307;-48
2022/01/11 00:34:56;;;;;;;;;;;;;;;;;;2105132;28;19994;-48
2022/01/11 00:35:58;;;;;;;;;;;;;;;;;;2106471;28;20405;-52
2022/01/11 00:36:59;;;;;;;;;;;;;;;;;;2107776;28;19924;-49
2022/01/11 00:37:59;;;;;;;;;;;;;;;;;;2106334;28;19973;-47
2022/01/11 00:39:00;;;;;;;;;;;;;;;;;;2106529;28;19919;-48
2022/01/11 00:40:04;;;;;;;;;;;;;;;;;;2105120;28;19931;-49
2022/01/11 00:41:05;;;;;;;;;;;;;;;;;;2106671;28;20014;-46
2022/01/11 00:42:06;;;;;;;;;;;;;;;;;;2105561;28;20365;-45
2022/01/11 00:43:06;;;;;;;;;;;;;;;;;;2101933;28;19924;-45
2022/01/11 00:44:07;;;;;;;;;;;;;;;;;;2098042;28;19924;-46
2022/01/11 00:45:09;;;;;;;;;;;;;;;;;;2099672;28;20428;-46
2022/01/11 00:46:10;;;;;;;;;;;;;;;;;;2110337;28;20006;-45
2022/01/11 00:47:11;;;;;;;;;;;;;;;;;;2114843;28;20376;-45
2022/01/11 00:48:12;;;;;;;;;;;;;;;;;;2108604;28;19927;-45
2022/01/11 00:49:13;;;;;;;;;;;;;;;;;;2100083;28;20273;-45
2022/01/11 00:50:14;;;;;;;;;;;;;;;;;;2098141;28;19920;-45
2022/01/11 00:51:15;;;;;;;;;;;;;;;;;;2101432;28;19921;-46
2022/01/11 00:52:15;;;;;;;;;;;;;;;;;;2114963;28;19919;-46
2022/01/11 00:53:18;;;;;;;;;;;;;;;;;;2114718;28;19926;-45
2022/01/11 00:54:19;;;;;;;;;;;;;;;;;;2105970;28;20003;-48
2022/01/11 00:55:19;;;;;;;;;;;;;;;;;;2106472;28;19920;-48
2022/01/11 00:56:20;;;;;;;;;;;;;;;;;;2105987;28;19920;-48
2022/01/11 00:57:21;;;;;;;;;;;;;;;;;;2105324;28;19974;-49
2022/01/11 00:58:22;;;;;;;;;;;;;;;;;;2097981;28;20270;-48
2022/01/11 00:59:23;;;;;;;;;;;;;;;;;;2101334;28;20346;-48
2022/01/11 01:00:23;;;;;;;;;;;;;;;;;;2104924;28;19920;-47
2022/01/11 01:01:27;;;;;;;;;;;;;;;;;;2106274;28;19920;-47
2022/01/11 01:02:27;;;;;;;;;;;;;;;;;;2107236;28;20045;-48
2022/01/11 01:03:29;;;;;;;;;;;;;;;;;;2098691;28;19920;-48
2022/01/11 01:04:29;;;;;;;;;;;;;;;;;;2097990;28;19949;-47
2022/01/11 01:05:30;;;;;;;;;;;;;;;;;;2103449;28;20020;-48
2022/01/11 01:06:31;;;;;;;;;;;;;;;;;;2106216;28;20400;-48
2022/01/11 01:07:32;;;;;;;;;;;;;;;;;;2105928;28;19927;-48
2022/01/11 01:08:33;;;;;;;;;;;;;;;;;;2105057;28;19920;-48
2022/01/11 01:09:43;;;;;;;;;;;;;;;;;;2098147;28;20262;-49
2022/01/11 01:10:46;;;;;;;;;;;;;;;;;;2101369;28;19973;-49
2022/01/11 01:11:47;;;;;;;;;;;;;;;;;;2104766;28;20015;-49
2022/01/11 01:12:47;;;;;;;;;;;;;;;;;;2106420;28;19920;-48
2022/01/11 01:13:48;;;;;;;;;;;;;;;;;;2103995;28;19920;-47
2022/01/11 01:14:49;;;;;;;;;;;;;;;;;;2106431;28;19926;-49
2022/01/11 01:15:50;;;;;;;;;;;;;;;;;;2105806;28;19920;-48
2022/01/11 01:16:51;;;;;;;;;;;;;;;;;;2104458;28;19923;-49
2022/01/11 01:17:52;;;;;;;;;;;;;;;;;;2106365;28;20309;-48
2022/01/11 01:18:52;;;;;;;;;;;;;;;;;;2105543;28;19920;-49
2022/01/11 01:19:53;;;;;;;;;;;;;;;;;;2111738;28;19920;-47
2022/01/11 01:20:54;;;;;;;;;;;;;;;;;;2114812;28;19972;-48
2022/01/11 01:21:55;;;;;;;;;;;;;;;;;;2110603;28;19920;-48
2022/01/11 01:22:56;;;;;;;;;;;;;;;;;;2105351;28;19920;-48
2022/01/11 01:23:56;;;;;;;;;;;;;;;;;;2106217;28;19965;-48
2022/01/11 01:24:57;;;;;;;;;;;;;;;;;;2105033;28;19920;-47
2022/01/11 01:25:58;;;;;;;;;;;;;;;;;;2114657;28;19973;-48
2022/01/11 01:26:59;;;;;;;;;;;;;;;;;;2114654;28;19926;-47
2022/01/11 01:28:00;;;;;;;;;;;;;;;;;;2107144;28;19998;-49
2022/01/11 01:29:01;;;;;;;;;;;;;;;;;;2106124;28;19930;-48
2022/01/11 01:30:02;;;;;;;;;;;;;;;;;;2105124;28;19969;-49
2022/01/11 01:31:02;;;;;;;;;;;;;;;;;;2105060;28;20305;-48
2022/01/11 01:32:03;;;;;;;;;;;;;;;;;;2097762;28;19920;-49
2022/01/11 01:33:04;;;;;;;;;;;;;;;;;;2098233;28;19920;-49
2022/01/11 01:34:05;;;;;;;;;;;;;;;;;;2099772;28;19920;-49
2022/01/11 01:35:06;;;;;;;;;;;;;;;;;;2097778;28;19920;-47
2022/01/11 01:36:11;;;;;;;;;;;;;;;;;;2100310;28;19935;-48
2022/01/11 01:37:12;;;;;;;;;;;;;;;;;;2106397;28;20007;-45
2022/01/11 01:38:13;;;;;;;;;;;;;;;;;;2107683;28;19928;-45
2022/01/11 01:39:13;;;;;;;;;;;;;;;;;;2107281;28;19965;-45
2022/01/11 01:40:17;;;;;;;;;;;;;;;;;;2112557;28;19919;-44
2022/01/11 01:41:19;;;;;;;;;;;;;;;;;;2107032;28;20042;-44
2022/01/11 01:42:20;;;;;;;;;;;;;;;;;;2109275;28;20019;-47
2022/01/11 01:43:21;;;;;;;;;;;;;;;;;;2107625;28;19931;-45
2022/01/11 01:44:22;;;;;;;;;;;;;;;;;;2106125;28;19924;-45
2022/01/11 01:45:24;;;;;;;;;;;;;;;;;;2104765;28;20324;-45
2022/01/11 01:46:25;;;;;;;;;;;;;;;;;;2099295;28;20019;-46
2022/01/11 01:47:25;;;;;;;;;;;;;;;;;;2100554;28;20293;-46
2022/01/11 01:48:26;;;;;;;;;;;;;;;;;;2114677;28;19919;-46
2022/01/11 01:49:28;;;;;;;;;;;;;;;;;;2116139;28;20265;-46
2022/01/11 01:50:29;;;;;;;;;;;;;;;;;;2107829;28;20011;-44
2022/01/11 01:51:30;;;;;;;;;;;;;;;;;;2107524;28;19924;-45
2022/01/11 01:52:31;;;;;;;;;;;;;;;;;;2107652;28;19955;-46
2022/01/11 01:53:31;;;;;;;;;;;;;;;;;;2106945;28;19923;-45
2022/01/11 01:54:32;;;;;;;;;;;;;;;;;;2116161;28;19920;-45
2022/01/11 01:55:33;;;;;;;;;;;;;;;;;;2114521;28;19919;-45
2022/01/11 01:56:34;;;;;;;;;;;;;;;;;;2106174;28;19926;-45
2022/01/11 01:57:35;;;;;;;;;;;;;;;;;;2107655;28;20289;-45
2022/01/11 01:58:37;;;;;;;;;;;;;;;;;;2106244;28;20285;-44
2022/01/11 01:59:38;;;;;;;;;;;;;;;;;;2103239;28;20424;-45
2022/01/11 02:00:42;;;;;;;;;;;;;;;;;;2099165;28;19965;-45
2022/01/11 02:01:44;;;;;;;;;;;;;;;;;;2102588;28;19920;-45
2022/01/11 02:02:45;;;;;;;;;;;;;;;;;;2115743;28;19919;-46
2022/01/11 02:03:46;;;;;;;;;;;;;;;;;;2115966;28;20006;-46
2022/01/11 02:04:49;;;;;;;;;;;;;;;;;;2107748;28;19966;-45
2022/01/11 02:05:50;;;;;;;;;;;;;;;;;;2107417;28;20011;-46
2022/01/11 02:06:51;;;;;;;;;;;;;;;;;;2106826;28;19954;-46
2022/01/11 02:07:52;;;;;;;;;;;;;;;;;;2109932;28;19923;-45
2022/01/11 02:08:52;;;;;;;;;;;;;;;;;;2115859;28;19932;-46
2022/01/11 02:09:53;;;;;;;;;;;;;;;;;;2112388;28;19942;-46
2022/01/11 02:10:54;;;;;;;;;;;;;;;;;;2104450;28;19921;-45
2022/01/11 02:11:55;;;;;;;;;;;;;;;;;;2099089;28;20266;-45
2022/01/11 02:12:56;;;;;;;;;;;;;;;;;;2103085;28;19923;-45
2022/01/11 02:13:56;;;;;;;;;;;;;;;;;;2106678;28;19920;-45
2022/01/11 02:14:57;;;;;;;;;;;;;;;;;;2107562;28;19920;-44
2022/01/11 02:15:58;;;;;;;;;;;;;;;;;;2105104;28;19920;-45
2022/01/11 02:17:00;;;;;;;;;;;;;;;;;;2107256;28;19923;-48
2022/01/11 02:18:01;;;;;;;;;;;;;;;;;;2107418;28;19947;-44
2022/01/11 02:19:02;;;;;;;;;;;;;;;;;;2106255;28;19919;-44
2022/01/11 02:20:03;;;;;;;;;;;;;;;;;;2107508;28;19926;-45
2022/01/11 02:21:04;;;;;;;;;;;;;;;;;;2105867;28;19927;-44
2022/01/11 02:22:04;;;;;;;;;;;;;;;;;;2109990;28;19919;-44
2022/01/11 02:23:05;;;;;;;;;;;;;;;;;;2115846;28;19920;-45
2022/01/11 02:24:06;;;;;;;;;;;;;;;;;;2110956;28;19920;-45
2022/01/11 02:25:07;;;;;;;;;;;;;;;;;;2101679;28;19928;-46
2022/01/11 02:26:08;;;;;;;;;;;;;;;;;;2098863;28;19920;-45
2022/01/11 02:27:09;;;;;;;;;;;;;;;;;;2102978;28;19919;-45
2022/01/11 02:28:09;;;;;;;;;;;;;;;;;;2107005;28;20283;-44
2022/01/11 02:29:10;;;;;;;;;;;;;;;;;;2107431;28;20363;-44
2022/01/11 02:30:11;;;;;;;;;;;;;;;;;;2108093;28;19929;-44
2022/01/11 02:31:12;;;;;;;;;;;;;;;;;;2107271;28;19970;-44
2022/01/11 02:32:13;;;;;;;;;;;;;;;;;;2107322;28;19924;-44
2022/01/11 02:33:23;;;;;;;;;;;;;;;;;;2106166;28;19927;-44
2022/01/11 02:34:24;;;;;;;;;;;;;;;;;;2107409;28;20045;-44
2022/01/11 02:35:25;;;;;;;;;;;;;;;;;;2105171;28;20075;-45
2022/01/11 02:36:25;;;;;;;;;;;;;;;;;;2101676;28;19920;-44
2022/01/11 02:37:26;;;;;;;;;;;;;;;;;;2099025;28;19920;-44
2022/01/11 02:38:27;;;;;;;;;;;;;;;;;;2100866;28;19928;-44
2022/01/11 02:39:28;;;;;;;;;;;;;;;;;;2100164;28;19924;-45
2022/01/11 02:40:29;;;;;;;;;;;;;;;;;;2103771;28;19919;-45
2022/01/11 02:41:29;;;;;;;;;;;;;;;;;;2103529;28;19928;-45
2022/01/11 02:42:30;;;;;;;;;;;;;;;;;;2107517;28;20414;-44
2022/01/11 02:43:31;;;;;;;;;;;;;;;;;;2107325;28;20265;-45
2022/01/11 02:44:32;;;;;;;;;;;;;;;;;;2104166;28;19931;-44
2022/01/11 02:45:33;;;;;;;;;;;;;;;;;;2098799;28;19928;-45
2022/01/11 02:46:34;;;;;;;;;;;;;;;;;;2098479;28;20408;-45
2022/01/11 02:47:35;;;;;;;;;;;;;;;;;;2106037;28;20292;-45
2022/01/11 02:48:37;;;;;;;;;;;;;;;;;;2107165;28;19920;-44
2022/01/11 02:49:38;;;;;;;;;;;;;;;;;;2107895;28;20007;-45
2022/01/11 02:50:39;;;;;;;;;;;;;;;;;;2102834;28;19927;-45
2022/01/11 02:51:39;;;;;;;;;;;;;;;;;;2098799;28;20407;-45
2022/01/11 02:52:40;;;;;;;;;;;;;;;;;;2100252;28;19920;-44
2022/01/11 02:53:41;;;;;;;;;;;;;;;;;;2106087;28;19923;-45
2022/01/11 02:54:42;;;;;;;;;;;;;;;;;;2107158;28;20305;-44
2022/01/11 02:55:43;;;;;;;;;;;;;;;;;;2105156;28;19928;-44
2022/01/11 02:56:44;;;;;;;;;;;;;;;;;;2115626;28;19931;-44
2022/01/11 02:57:45;;;;;;;;;;;;;;;;;;2115748;28;20433;-44
2022/01/11 02:58:45;;;;;;;;;;;;;;;;;;2101787;28;20284;-44
2022/01/11 02:59:46;;;;;;;;;;;;;;;;;;2098732;28;20396;-45
2022/01/11 03:00:47;;;;;;;;;;;;;;;;;;2099559;28;20370;-45
2022/01/11 03:01:48;;;;;;;;;;;;;;;;;;2106404;28;19973;-44
2022/01/11 03:02:52;;;;;;;;;;;;;;;;;;2107173;28;20006;-44
2022/01/11 03:03:52;;;;;;;;;;;;;;;;;;2104973;28;19932;-45
2022/01/11 03:04:53;;;;;;;;;;;;;;;;;;2113166;28;20285;-45
2022/01/11 03:05:54;;;;;;;;;;;;;;;;;;2115433;28;19960;-45
2022/01/11 03:06:56;;;;;;;;;;;;;;;;;;2110670;28;19928;-46
2022/01/11 03:07:57;;;;;;;;;;;;;;;;;;2098879;28;20011;-44
2022/01/11 03:08:58;;;;;;;;;;;;;;;;;;2098830;28;20362;-46
2022/01/11 03:10:03;;;;;;;;;;;;;;;;;;2106427;28;19920;-44
2022/01/11 03:11:06;;;;;;;;;;;;;;;;;;2115744;28;19926;-45
2022/01/11 03:12:06;;;;;;;;;;;;;;;;;;2113428;28;20361;-44
2022/01/11 03:13:08;;;;;;;;;;;;;;;;;;2109552;28;19919;-48
2022/01/11 03:14:09;;;;;;;;;;;;;;;;;;2115524;28;20265;-44
2022/01/11 03:15:11;;;;;;;;;;;;;;;;;;2112484;28;19931;-44
2022/01/11 03:16:12;;;;;;;;;;;;;;;;;;2105482;28;19986;-45
2022/01/11 03:17:13;;;;;;;;;;;;;;;;;;2106940;28;19920;-45
2022/01/11 03:18:13;;;;;;;;;;;;;;;;;;2106847;28;19920;-46
2022/01/11 03:19:14;;;;;;;;;;;;;;;;;;2099248;28;19970;-45
2022/01/11 03:20:15;;;;;;;;;;;;;;;;;;2098785;28;20300;-46
2022/01/11 03:21:16;;;;;;;;;;;;;;;;;;2105636;28;20288;-44
2022/01/11 03:22:17;;;;;;;;;;;;;;;;;;2098587;28;19966;-45
2022/01/11 03:23:18;;;;;;;;;;;;;;;;;;2098418;28;19927;-45
2022/01/11 03:24:18;;;;;;;;;;;;;;;;;;2110235;28;20699;-44
2022/01/11 03:25:19;;;;;;;;;;;;;;;;;;2115399;28;19920;-44
2022/01/11 03:26:20;;;;;;;;;;;;;;;;;;2111396;28;19927;-44
2022/01/11 03:27:21;;;;;;;;;;;;;;;;;;2102070;28;19927;-45
2022/01/11 03:28:22;;;;;;;;;;;;;;;;;;2098722;28;19924;-44
2022/01/11 03:29:23;;;;;;;;;;;;;;;;;;2101310;28;19977;-45
2022/01/11 03:30:23;;;;;;;;;;;;;;;;;;2105694;28;19920;-45
2022/01/11 03:31:24;;;;;;;;;;;;;;;;;;2106753;28;19920;-46
2022/01/11 03:32:25;;;;;;;;;;;;;;;;;;2103991;28;19928;-44
2022/01/11 03:33:36;;;;;;;;;;;;;;;;;;2098542;28;20289;-45
2022/01/11 03:34:37;;;;;;;;;;;;;;;;;;2098301;28;19926;-45
2022/01/11 03:35:38;;;;;;;;;;;;;;;;;;2108534;28;19920;-45
2022/01/11 03:36:38;;;;;;;;;;;;;;;;;;2111229;28;20281;-45
2022/01/11 03:37:39;;;;;;;;;;;;;;;;;;2105182;28;19965;-47
2022/01/11 03:38:40;;;;;;;;;;;;;;;;;;2104916;28;19935;-46
2022/01/11 03:39:41;;;;;;;;;;;;;;;;;;2098548;28;19932;-46
2022/01/11 03:40:42;;;;;;;;;;;;;;;;;;2104735;28;19966;-46
2022/01/11 03:41:43;;;;;;;;;;;;;;;;;;2113805;28;20057;-45
2022/01/11 03:42:44;;;;;;;;;;;;;;;;;;2115337;28;19923;-45
2022/01/11 03:43:44;;;;;;;;;;;;;;;;;;2109095;28;19924;-45
2022/01/11 03:44:45;;;;;;;;;;;;;;;;;;2098842;28;19928;-45
2022/01/11 03:45:46;;;;;;;;;;;;;;;;;;2098573;28;19920;-46
2022/01/11 03:46:47;;;;;;;;;;;;;;;;;;2103891;28;20328;-45
2022/01/11 03:47:48;;;;;;;;;;;;;;;;;;2115403;28;19919;-46
2022/01/11 03:48:48;;;;;;;;;;;;;;;;;;2114528;28;19920;-45
2022/01/11 03:49:49;;;;;;;;;;;;;;;;;;2108971;28;19927;-46
2022/01/11 03:50:53;;;;;;;;;;;;;;;;;;2115263;28;20425;-46
2022/01/11 03:51:54;;;;;;;;;;;;;;;;;;2112339;28;20006;-49
2022/01/11 03:52:59;;;;;;;;;;;;;;;;;;2100504;28;19920;-48
2022/01/11 03:54:07;;;;;;;;;;;;;;;;;;2098515;28;19927;-49
2022/01/11 03:55:11;;;;;;;;;;;;;;;;;;2101755;28;20006;-48
2022/01/11 03:56:21;;;;;;;;;;;;;;;;;;2098356;28;19934;-50
2022/01/11 03:57:22;;;;;;;;;;;;;;;;;;2098839;28;19924;-48
2022/01/11 03:58:26;;;;;;;;;;;;;;;;;;2110437;28;20261;-48
2022/01/11 03:59:26;;;;;;;;;;;;;;;;;;2114693;28;20073;-48
2022/01/11 04:00:27;;;;;;;;;;;;;;;;;;2111422;28;19993;-48
2022/01/11 04:01:28;;;;;;;;;;;;;;;;;;2100843;28;19927;-49
2022/01/11 04:02:29;;;;;;;;;;;;;;;;;;2098432;28;19924;-48
2022/01/11 04:03:30;;;;;;;;;;;;;;;;;;2100813;28;20288;-48
2022/01/11 04:04:31;;;;;;;;;;;;;;;;;;2099320;28;20022;-50
2022/01/11 04:05:31;;;;;;;;;;;;;;;;;;2098300;28;19928;-46
2022/01/11 04:06:33;;;;;;;;;;;;;;;;;;2105195;28;21056;-48
2022/01/11 04:07:33;;;;;;;;;;;;;;;;;;2115267;28;19919;-49
2022/01/11 04:08:34;;;;;;;;;;;;;;;;;;2115183;28;19965;-48
2022/01/11 04:09:35;;;;;;;;;;;;;;;;;;2102119;28;19927;-48
2022/01/11 04:10:36;;;;;;;;;;;;;;;;;;2098366;28;19920;-48
2022/01/11 04:11:37;;;;;;;;;;;;;;;;;;2098950;28;20361;-50
2022/01/11 04:12:37;;;;;;;;;;;;;;;;;;2101211;28;20293;-48
2022/01/11 04:13:38;;;;;;;;;;;;;;;;;;2098335;28;19970;-48
2022/01/11 04:14:39;;;;;;;;;;;;;;;;;;2099200;28;19974;-47
2022/01/11 04:15:40;;;;;;;;;;;;;;;;;;2100436;28;19920;-48
2022/01/11 04:16:41;;;;;;;;;;;;;;;;;;2098309;28;19973;-48
2022/01/11 04:17:42;;;;;;;;;;;;;;;;;;2102121;28;20318;-48
2022/01/11 04:18:42;;;;;;;;;;;;;;;;;;2106618;28;19920;-48
2022/01/11 04:19:43;;;;;;;;;;;;;;;;;;2106744;28;19955;-48
2022/01/11 04:20:44;;;;;;;;;;;;;;;;;;2106605;28;19984;-48
2022/01/11 04:21:45;;;;;;;;;;;;;;;;;;2098294;28;20335;-50
2022/01/11 04:22:46;;;;;;;;;;;;;;;;;;2098253;28;19920;-51
2022/01/11 04:23:47;;;;;;;;;;;;;;;;;;2105904;28;19966;-49
2022/01/11 04:24:48;;;;;;;;;;;;;;;;;;2106605;28;19927;-52
2022/01/11 04:25:49;;;;;;;;;;;;;;;;;;2104642;28;19920;-49
2022/01/11 04:26:49;;;;;;;;;;;;;;;;;;2101866;28;20274;-48
2022/01/11 04:27:50;;;;;;;;;;;;;;;;;;2098338;28;20274;-48
2022/01/11 04:28:51;;;;;;;;;;;;;;;;;;2102039;28;19923;-48
2022/01/11 04:29:52;;;;;;;;;;;;;;;;;;2104962;28;19924;-48
2022/01/11 04:30:53;;;;;;;;;;;;;;;;;;2106516;28;19919;-48
2022/01/11 04:31:54;;;;;;;;;;;;;;;;;;2103369;28;19924;-48
2022/01/11 04:32:55;;;;;;;;;;;;;;;;;;2110655;28;19923;-48
2022/01/11 04:33:55;;;;;;;;;;;;;;;;;;2106569;28;19974;-48
2022/01/11 04:34:56;;;;;;;;;;;;;;;;;;2106651;28;19923;-50
2022/01/11 04:35:57;;;;;;;;;;;;;;;;;;2098063;28;19920;-51
2022/01/11 04:36:58;;;;;;;;;;;;;;;;;;2097682;28;19974;-50
2022/01/11 04:37:59;;;;;;;;;;;;;;;;;;2107365;28;20085;-48
2022/01/11 04:39:00;;;;;;;;;;;;;;;;;;2114937;28;19926;-47
2022/01/11 04:40:01;;;;;;;;;;;;;;;;;;2112662;28;19927;-48
2022/01/11 04:41:01;;;;;;;;;;;;;;;;;;2105335;28;19926;-47
2022/01/11 04:42:02;;;;;;;;;;;;;;;;;;2106469;28;19931;-48
2022/01/11 04:43:03;;;;;;;;;;;;;;;;;;2104608;28;19920;-49
2022/01/11 04:44:04;;;;;;;;;;;;;;;;;;2106211;28;19920;-48
2022/01/11 04:45:05;;;;;;;;;;;;;;;;;;2106448;28;20387;-47
2022/01/11 04:46:06;;;;;;;;;;;;;;;;;;2103663;28;19926;-48
2022/01/11 04:47:07;;;;;;;;;;;;;;;;;;2114812;28;19919;-47
2022/01/11 04:48:08;;;;;;;;;;;;;;;;;;2115027;28;19927;-49
2022/01/11 04:49:09;;;;;;;;;;;;;;;;;;2109118;28;20402;-49
2022/01/11 04:50:09;;;;;;;;;;;;;;;;;;2114899;28;20392;-48
2022/01/11 04:51:10;;;;;;;;;;;;;;;;;;2113898;28;19927;-48
2022/01/11 04:52:11;;;;;;;;;;;;;;;;;;2105691;28;19989;-48
2022/01/11 04:53:12;;;;;;;;;;;;;;;;;;2106747;28;19924;-47
2022/01/11 04:54:13;;;;;;;;;;;;;;;;;;2104297;28;20072;-46
2022/01/11 04:55:13;;;;;;;;;;;;;;;;;;2101304;28;20370;-45
2022/01/11 04:56:17;;;;;;;;;;;;;;;;;;2098010;28;19928;-46
2022/01/11 04:57:18;;;;;;;;;;;;;;;;;;2100751;28;20390;-45
2022/01/11 04:58:19;;;;;;;;;;;;;;;;;;2113937;28;20361;-45
2022/01/11 04:59:19;;;;;;;;;;;;;;;;;;2114824;28;19920;-46
2022/01/11 05:00:20;;;;;;;;;;;;;;;;;;2106695;28;19921;-45
2022/01/11 05:01:21;;;;;;;;;;;;;;;;;;2106334;28;20288;-45
2022/01/11 05:02:22;;;;;;;;;;;;;;;;;;2106613;28;20323;-45
2022/01/11 05:03:23;;;;;;;;;;;;;;;;;;2107073;28;19966;-45
2022/01/11 05:04:24;;;;;;;;;;;;;;;;;;2114809;28;20289;-46
2022/01/11 05:05:26;;;;;;;;;;;;;;;;;;2113102;28;19973;-45
2022/01/11 05:06:27;;;;;;;;;;;;;;;;;;2105652;28;19920;-46
2022/01/11 05:07:27;;;;;;;;;;;;;;;;;;2106378;28;19920;-47
2022/01/11 05:08:28;;;;;;;;;;;;;;;;;;2106684;28;20254;-45
2022/01/11 05:09:29;;;;;;;;;;;;;;;;;;2104967;28;19920;-45
2022/01/11 05:10:30;;;;;;;;;;;;;;;;;;2106441;28;19967;-45
2022/01/11 05:11:30;;;;;;;;;;;;;;;;;;2103864;28;20412;-45
2022/01/11 05:12:31;;;;;;;;;;;;;;;;;;2105354;28;20385;-46
2022/01/11 05:13:32;;;;;;;;;;;;;;;;;;2106440;28;19924;-45
2022/01/11 05:14:33;;;;;;;;;;;;;;;;;;2103788;28;19929;-45
2022/01/11 05:15:34;;;;;;;;;;;;;;;;;;2106404;28;19920;-45
2022/01/11 05:16:35;;;;;;;;;;;;;;;;;;2106262;28;20380;-46
2022/01/11 05:17:36;;;;;;;;;;;;;;;;;;2105157;28;19919;-45
2022/01/11 05:18:37;;;;;;;;;;;;;;;;;;2106357;28;20438;-46
2022/01/11 05:19:38;;;;;;;;;;;;;;;;;;2104282;28;19927;-45
2022/01/11 05:20:39;;;;;;;;;;;;;;;;;;2109905;28;20018;-47
2022/01/11 05:21:39;;;;;;;;;;;;;;;;;;2114630;28;19919;-46
2022/01/11 05:22:42;;;;;;;;;;;;;;;;;;2110722;28;19920;-45
2022/01/11 05:23:43;;;;;;;;;;;;;;;;;;2099771;28;19998;-45
2022/01/11 05:24:44;;;;;;;;;;;;;;;;;;2097851;28;19966;-46
2022/01/11 05:25:44;;;;;;;;;;;;;;;;;;2100115;28;19924;-47
2022/01/11 05:26:45;;;;;;;;;;;;;;;;;;2114398;28;19920;-45
2022/01/11 05:27:46;;;;;;;;;;;;;;;;;;2114627;28;19972;-45
2022/01/11 05:28:50;;;;;;;;;;;;;;;;;;2105207;28;19956;-45
2022/01/11 05:29:50;;;;;;;;;;;;;;;;;;2106248;28;19927;-45
2022/01/11 05:30:51;;;;;;;;;;;;;;;;;;2105756;28;20333;-46
2022/01/11 05:31:52;;;;;;;;;;;;;;;;;;2105598;28;19924;-45
2022/01/11 05:32:53;;;;;;;;;;;;;;;;;;2106179;28;19982;-45
2022/01/11 05:33:54;;;;;;;;;;;;;;;;;;2104255;28;19927;-45
2022/01/11 05:34:55;;;;;;;;;;;;;;;;;;2110688;28;20286;-45
2022/01/11 05:35:55;;;;;;;;;;;;;;;;;;2114622;28;19972;-45
2022/01/11 05:36:56;;;;;;;;;;;;;;;;;;2109459;28;19920;-46
2022/01/11 05:37:57;;;;;;;;;;;;;;;;;;2113731;28;19928;-45
2022/01/11 05:38:58;;;;;;;;;;;;;;;;;;2114517;28;19973;-47
2022/01/11 05:39:59;;;;;;;;;;;;;;;;;;2108664;28;19920;-47
2022/01/11 05:41:00;;;;;;;;;;;;;;;;;;2114602;28;19927;-45
2022/01/11 05:42:00;;;;;;;;;;;;;;;;;;2114621;28;19920;-45
2022/01/11 05:43:01;;;;;;;;;;;;;;;;;;2106177;28;19933;-45
2022/01/11 05:44:02;;;;;;;;;;;;;;;;;;2114581;28;19946;-45
2022/01/11 05:45:03;;;;;;;;;;;;;;;;;;2112620;28;19919;-46
2022/01/11 05:46:04;;;;;;;;;;;;;;;;;;2103717;28;19927;-46
2022/01/11 05:47:05;;;;;;;;;;;;;;;;;;2106254;28;19973;-45
2022/01/11 05:48:05;;;;;;;;;;;;;;;;;;2105179;28;19920;-46
2022/01/11 05:49:06;;;;;;;;;;;;;;;;;;2112049;28;19980;-45
2022/01/11 05:50:07;;;;;;;;;;;;;;;;;;2114507;28;19926;-46
2022/01/11 05:51:08;;;;;;;;;;;;;;;;;;2108365;28;20363;-45
2022/01/11 05:52:09;;;;;;;;;;;;;;;;;;2113597;28;19919;-46
2022/01/11 05:53:10;;;;;;;;;;;;;;;;;;2114550;28;20125;-45
2022/01/11 05:54:11;;;;;;;;;;;;;;;;;;2109075;28;20299;-45
2022/01/11 05:55:11;;;;;;;;;;;;;;;;;;2097694;28;20405;-45
2022/01/11 05:56:12;;;;;;;;;;;;;;;;;;2097711;28;19924;-45
2022/01/11 05:57:13;;;;;;;;;;;;;;;;;;2105020;28;19920;-46
2022/01/11 05:58:14;;;;;;;;;;;;;;;;;;2114579;28;19920;-45
2022/01/11 05:59:15;;;;;;;;;;;;;;;;;;2111976;28;19920;-45
2022/01/11 06:00:16;;;;;;;;;;;;;;;;;;2104869;28;19920;-45
2022/01/11 06:01:17;;;;;;;;;;;;;;;;;;2097715;28;20019;-46
2022/01/11 06:02:18;;;;;;;;;;;;;;;;;;2100866;28;19928;-45
2022/01/11 06:03:19;;;;;;;;;;;;;;;;;;2104651;28;20414;-45
2022/01/11 06:04:20;;;;;;;;;;;;;;;;;;2106026;28;20291;-46
2022/01/11 06:05:21;;;;;;;;;;;;;;;;;;2104126;28;19919;-45
2022/01/11 06:06:21;;;;;;;;;;;;;;;;;;2104737;28;20349;-46
2022/01/11 06:07:22;;;;;;;;;;;;;;;;;;2106042;28;19923;-45
2022/01/11 06:08:23;;;;;;;;;;;;;;;;;;2105398;28;19928;-45
2022/01/11 06:09:26;;;;;;;;;;;;;;;;;;2114576;28;19923;-46
2022/01/11 06:10:26;;;;;;;;;;;;;;;;;;2114455;28;19919;-46
2022/01/11 06:11:27;;;;;;;;;;;;;;;;;;2104782;28;20046;-46
2022/01/11 06:12:28;;;;;;;;;;;;;;;;;;2097732;28;19926;-46
2022/01/11 06:13:29;;;;;;;;;;;;;;;;;;2097278;28;19920;-46
2022/01/11 06:14:30;;;;;;;;;;;;;;;;;;2109919;28;19927;-46
2022/01/11 06:15:31;;;;;;;;;;;;;;;;;;2114373;28;20380;-46
2022/01/11 06:16:32;;;;;;;;;;;;;;;;;;2108594;28;20005;-47
2022/01/11 06:17:33;;;;;;;;;;;;;;;;;;2111762;28;19927;-46
2022/01/11 06:18:34;;;;;;;;;;;;;;;;;;2114533;28;20376;-46
2022/01/11 06:19:34;;;;;;;;;;;;;;;;;;2106763;28;19920;-45
2022/01/11 06:20:35;;;;;;;;;;;;;;;;;;2106143;28;19919;-45
2022/01/11 06:21:36;;;;;;;;;;;;;;;;;;2105959;28;20357;-46
2022/01/11 06:22:37;;;;;;;;;;;;;;;;;;2102458;28;19927;-46
2022/01/11 06:23:38;;;;;;;;;;;;;;;;;;2107450;28;19920;-46
2022/01/11 06:24:39;;;;;;;;;;;;;;;;;;2106904;28;19924;-47
2022/01/11 06:25:41;;;;;;;;;;;;;;;;;;2110792;28;20002;-48
2022/01/11 06:26:41;;;;;;;;;;;;;;;;;;2115754;28;19943;-49
2022/01/11 06:27:42;;;;;;;;;;;;;;;;;;2111748;28;19931;-49
2022/01/11 06:28:47;;;;;;;;;;;;;;;;;;2101123;28;20480;-49
2022/01/11 06:29:48;;;;;;;;;;;;;;;;;;2099013;28;20054;-48
2022/01/11 06:30:49;;;;;;;;;;;;;;;;;;2100237;28;19973;-49
2022/01/11 06:31:49;;;;;;;;;;;;;;;;;;2115070;28;19920;-48
2022/01/11 06:32:50;;;;;;;;;;;;;;;;;;2115774;28;20365;-48
2022/01/11 06:33:55;;;;;;;;;;;;;;;;;;2109143;28;20369;-49
2022/01/11 06:34:56;;;;;;;;;;;;;;;;;;2099068;28;19928;-49
2022/01/11 06:35:57;;;;;;;;;;;;;;;;;;2098747;28;20270;-48
2022/01/11 06:36:59;;;;;;;;;;;;;;;;;;2108605;28;20357;-49
2022/01/11 06:38:00;;;;;;;;;;;;;;;;;;2107260;28;20359;-48
2022/01/11 06:39:02;;;;;;;;;;;;;;;;;;2106492;28;19920;-48
2022/01/11 06:40:03;;;;;;;;;;;;;;;;;;2110804;28;19924;-52
2022/01/11 06:41:04;;;;;;;;;;;;;;;;;;2107299;28;19919;-48
2022/01/11 06:42:05;;;;;;;;;;;;;;;;;;2107136;28;19932;-49
2022/01/11 06:43:06;;;;;;;;;;;;;;;;;;2106163;28;19927;-48
2022/01/11 06:44:07;;;;;;;;;;;;;;;;;;2107310;28;20340;-48
2022/01/11 06:45:08;;;;;;;;;;;;;;;;;;2104816;28;19927;-48
2022/01/11 06:46:09;;;;;;;;;;;;;;;;;;2115562;28;19919;-50
2022/01/11 06:47:10;;;;;;;;;;;;;;;;;;2115565;28;20139;-49
2022/01/11 06:48:11;;;;;;;;;;;;;;;;;;2107222;28;19924;-48
2022/01/11 06:49:11;;;;;;;;;;;;;;;;;;2115656;28;19920;-48
2022/01/11 06:50:12;;;;;;;;;;;;;;;;;;2113938;28;19923;-48
2022/01/11 06:51:13;;;;;;;;;;;;;;;;;;2108992;28;20368;-48
2022/01/11 06:52:14;;;;;;;;;;;;;;;;;;2115673;28;20006;-50
2022/01/11 06:53:15;;;;;;;;;;;;;;;;;;2113430;28;19919;-49
2022/01/11 06:54:16;;;;;;;;;;;;;;;;;;2104019;28;19962;-49
2022/01/11 06:55:17;;;;;;;;;;;;;;;;;;2098831;28;19954;-49
2022/01/11 06:56:20;;;;;;;;;;;;;;;;;;2102478;28;20444;-50
2022/01/11 06:57:21;;;;;;;;;;;;;;;;;;2106804;28;20444;-49
2022/01/11 06:58:21;;;;;;;;;;;;;;;;;;2107145;28;19965;-50
2022/01/11 06:59:23;;;;;;;;;;;;;;;;;;2106906;28;19923;-48